Time;durP1;ratioP1;P1;durP2;ratioP2;P2;SDS_P1;SDS_P2;PMS_P1;PMS_P2;Temp;Humidity;BMP_temperature;BMP_pressure;BME280_temperature;BME280_humidity;BME280_pressure;Samples;Min_cycle;Max_cycle;Signal;HPM_P1;HPM_P2
2020/12/06 00:01:39;;;;;;;19.80;16.10;;;8.10;77.80;;;;;;5033971;28;20569;-74
2020/12/06 00:04:06;;;;;;;17.03;15.10;;;8.10;77.60;;;;;;5020148;28;20455;-75
2020/12/06 00:06:33;;;;;;;18.50;15.80;;;8.10;77.50;;;;;;5015535;28;20453;-74
2020/12/06 00:09:00;;;;;;;17.30;15.60;;;8.10;77.40;;;;;;5017811;28;20875;-74
2020/12/06 00:11:26;;;;;;;20.30;16.43;;;8.00;77.30;;;;;;5015458;28;20448;-74
2020/12/06 00:13:53;;;;;;;17.30;15.43;;;8.00;77.50;;;;;;5016610;28;20453;-75
2020/12/06 00:16:21;;;;;;;17.73;15.97;;;8.00;77.60;;;;;;5027467;28;20466;-74
2020/12/06 00:18:48;;;;;;;20.20;15.83;;;8.10;77.60;;;;;;5028516;28;20460;-75
2020/12/06 00:21:16;;;;;;;17.73;14.70;;;8.10;77.70;;;;;;5034795;28;20534;-74
2020/12/06 00:23:43;;;;;;;21.10;16.20;;;8.10;77.70;;;;;;5025039;28;20449;-74
2020/12/06 00:26:10;;;;;;;18.60;15.70;;;8.10;77.80;;;;;;5013510;28;20452;-76
2020/12/06 00:28:37;;;;;;;19.67;15.80;;;8.10;77.70;;;;;;5023232;28;20457;-74
2020/12/06 00:31:03;;;;;;;19.13;16.30;;;8.10;77.70;;;;;;5034291;28;21013;-75
2020/12/06 00:33:31;;;;;;;17.90;15.80;;;8.10;77.40;;;;;;5027926;28;20499;-75
2020/12/06 00:35:57;;;;;;;18.47;16.57;;;8.10;77.30;;;;;;5015287;28;20523;-75
2020/12/06 00:38:24;;;;;;;17.70;14.53;;;8.10;77.40;;;;;;5020107;28;20480;-75
2020/12/06 00:40:50;;;;;;;18.80;14.63;;;8.10;77.40;;;;;;5024443;28;20465;-75
2020/12/06 00:43:17;;;;;;;18.57;15.73;;;8.20;77.50;;;;;;5018549;28;20469;-75
2020/12/06 00:45:43;;;;;;;17.67;14.60;;;8.20;77.40;;;;;;5034652;28;20455;-75
2020/12/06 00:48:10;;;;;;;21.10;15.50;;;8.10;77.40;;;;;;5031978;28;20462;-75
2020/12/06 00:50:37;;;;;;;17.30;15.30;;;8.10;77.50;;;;;;5014892;28;20464;-75
2020/12/06 00:53:04;;;;;;;20.87;15.63;;;8.10;77.50;;;;;;5013997;28;20861;-74
2020/12/06 00:55:30;;;;;;;20.03;16.37;;;8.10;77.60;;;;;;5034813;28;20459;-73
2020/12/06 00:57:57;;;;;;;18.10;15.60;;;8.10;77.60;;;;;;5034565;28;20452;-74
2020/12/06 01:00:23;;;;;;;16.23;14.70;;;8.00;77.40;;;;;;5015801;28;20520;-73
2020/12/06 01:02:50;;;;;;;20.33;15.97;;;8.00;77.60;;;;;;5034236;28;20490;-73
2020/12/06 01:05:17;;;;;;;18.37;14.60;;;8.10;77.70;;;;;;5015103;28;20459;-73
2020/12/06 01:07:44;;;;;;;21.17;14.67;;;8.10;77.60;;;;;;5014961;28;20458;-73
2020/12/06 01:10:12;;;;;;;17.63;14.43;;;8.10;77.40;;;;;;5017106;28;20968;-73
2020/12/06 01:12:39;;;;;;;15.90;14.30;;;8.10;77.60;;;;;;5015423;28;20457;-74
2020/12/06 01:15:08;;;;;;;20.67;15.30;;;8.10;77.50;;;;;;5026399;28;21002;-74
2020/12/06 01:17:34;;;;;;;20.50;15.23;;;8.10;77.50;;;;;;5033936;28;20451;-74
2020/12/06 01:20:01;;;;;;;18.17;16.30;;;8.20;77.40;;;;;;5023010;28;20449;-74
2020/12/06 01:22:27;;;;;;;16.50;13.80;;;8.10;77.30;;;;;;5014075;28;20525;-73
2020/12/06 01:24:55;;;;;;;16.73;14.93;;;8.10;77.20;;;;;;5025084;28;20814;-74
2020/12/06 01:27:21;;;;;;;16.47;14.73;;;8.10;77.10;;;;;;5034022;28;20477;-74
2020/12/06 01:29:48;;;;;;;22.00;18.27;;;8.10;77.20;;;;;;5024019;28;20459;-74
2020/12/06 01:32:14;;;;;;;19.53;14.07;;;8.20;77.20;;;;;;5032152;28;20454;-74
2020/12/06 01:34:41;;;;;;;15.03;13.53;;;8.20;77.10;;;;;;5025360;28;20966;-74
2020/12/06 01:37:07;;;;;;;15.97;13.43;;;8.20;77.10;;;;;;5013793;28;20483;-74
2020/12/06 01:39:34;;;;;;;16.50;13.67;;;8.20;76.80;;;;;;5020558;28;20457;-74
2020/12/06 01:42:01;;;;;;;17.83;14.33;;;8.20;76.80;;;;;;5019975;28;20483;-74
2020/12/06 01:44:28;;;;;;;17.20;15.40;;;8.10;76.80;;;;;;5018768;28;20468;-74
2020/12/06 01:46:55;;;;;;;16.57;13.73;;;8.10;77.00;;;;;;5031640;28;20463;-74
2020/12/06 01:49:24;;;;;;;15.13;13.37;;;8.10;77.10;;;;;;5029514;28;20483;-74
2020/12/06 01:51:56;;;;;;;16.83;14.67;;;8.20;77.00;;;;;;5022631;28;20467;-74
2020/12/06 01:54:23;;;;;;;15.37;13.80;;;8.20;76.60;;;;;;5029962;28;20482;-74
2020/12/06 01:56:50;;;;;;;16.80;14.40;;;8.20;76.50;;;;;;5013493;28;20460;-74
2020/12/06 01:59:18;;;;;;;15.50;13.90;;;8.10;76.60;;;;;;5015394;28;20456;-74
2020/12/06 02:01:55;;;;;;;17.40;15.03;;;8.20;76.80;;;;;;5028089;28;20893;-75
2020/12/06 02:04:25;;;;;;;16.30;14.07;;;8.20;76.40;;;;;;5033330;28;20456;-74
2020/12/06 02:06:52;;;;;;;16.50;14.13;;;8.20;76.60;;;;;;5026885;28;20986;-74
2020/12/06 02:09:19;;;;;;;14.50;12.63;;;8.20;76.20;;;;;;5026871;28;20548;-74
2020/12/06 02:11:45;;;;;;;16.53;14.80;;;8.20;76.20;;;;;;5031806;28;20452;-74
2020/12/06 02:14:12;;;;;;;16.60;14.90;;;8.20;76.20;;;;;;5031838;28;20997;-74
2020/12/06 02:16:39;;;;;;;16.40;13.53;;;8.20;76.20;;;;;;5028884;28;20455;-74
2020/12/06 02:19:07;;;;;;;19.30;14.80;;;8.20;76.10;;;;;;5032939;28;20445;-74
2020/12/06 02:21:36;;;;;;;20.30;14.80;;;8.20;76.00;;;;;;5029185;28;20487;-74
2020/12/06 02:24:02;;;;;;;19.07;15.60;;;8.20;76.10;;;;;;5032838;28;20461;-74
2020/12/06 02:26:29;;;;;;;16.60;14.70;;;8.20;76.20;;;;;;5031194;28;20956;-75
2020/12/06 02:28:56;;;;;;;17.07;15.27;;;8.20;76.20;;;;;;5032971;28;20529;-74
2020/12/06 02:31:22;;;;;;;18.20;15.13;;;8.20;76.10;;;;;;5028076;28;20780;-74
2020/12/06 02:33:49;;;;;;;17.60;14.53;;;8.20;76.00;;;;;;5032861;28;20448;-74
2020/12/06 02:36:15;;;;;;;17.10;14.20;;;8.20;75.90;;;;;;5032216;28;20460;-73
2020/12/06 02:38:42;;;;;;;18.20;16.20;;;8.20;75.70;;;;;;5030691;28;20475;-74
2020/12/06 02:41:09;;;;;;;21.80;16.03;;;8.20;75.70;;;;;;5029886;28;20456;-73
2020/12/06 02:43:35;;;;;;;21.33;16.83;;;8.20;75.70;;;;;;5032314;28;20530;-74
2020/12/06 02:46:02;;;;;;;18.73;16.50;;;8.10;75.60;;;;;;5031396;28;20975;-73
2020/12/06 02:48:29;;;;;;;20.23;17.17;;;8.10;75.70;;;;;;5032452;28;20458;-74
2020/12/06 02:50:55;;;;;;;19.07;16.67;;;8.10;75.80;;;;;;5032330;28;20866;-73
2020/12/06 02:53:22;;;;;;;25.47;18.03;;;8.10;75.70;;;;;;5032045;28;20445;-73
2020/12/06 02:55:49;;;;;;;22.37;17.57;;;8.00;75.40;;;;;;5031634;28;20461;-73
2020/12/06 02:58:15;;;;;;;22.77;17.87;;;8.00;75.60;;;;;;5031892;28;20505;-73
2020/12/06 03:00:42;;;;;;;22.70;18.87;;;8.00;75.70;;;;;;5032085;28;20513;-73
2020/12/06 03:03:08;;;;;;;26.53;18.57;;;8.00;76.50;;;;;;5032200;28;20486;-73
2020/12/06 03:05:35;;;;;;;24.60;19.10;;;8.00;76.00;;;;;;5029281;28;20455;-73
2020/12/06 03:08:01;;;;;;;20.00;17.63;;;8.00;75.90;;;;;;5029505;28;20446;-74
2020/12/06 03:10:28;;;;;;;21.03;17.00;;;8.10;75.90;;;;;;5030497;28;20464;-73
2020/12/06 03:12:55;;;;;;;22.80;18.17;;;8.10;75.60;;;;;;5032354;28;20943;-73
2020/12/06 03:15:22;;;;;;;20.40;18.10;;;8.10;75.60;;;;;;5030659;28;20443;-73
2020/12/06 03:17:48;;;;;;;24.53;18.47;;;8.00;75.30;;;;;;5031140;28;20471;-73
2020/12/06 03:20:15;;;;;;;22.23;17.23;;;8.00;75.30;;;;;;5016716;28;20459;-74
2020/12/06 03:22:41;;;;;;;18.97;16.60;;;8.00;75.20;;;;;;5016994;28;20487;-73
2020/12/06 03:25:08;;;;;;;23.50;17.90;;;8.00;75.20;;;;;;5012583;28;20815;-74
2020/12/06 03:27:34;;;;;;;20.03;17.20;;;8.00;75.30;;;;;;5029373;28;20458;-74
2020/12/06 03:30:02;;;;;;;21.93;18.77;;;8.10;75.40;;;;;;5024946;28;20809;-74
2020/12/06 03:32:29;;;;;;;22.07;17.77;;;8.00;75.00;;;;;;5015556;28;20463;-74
2020/12/06 03:34:55;;;;;;;22.67;16.30;;;8.00;75.00;;;;;;5016208;28;20999;-74
2020/12/06 03:37:22;;;;;;;22.17;16.97;;;8.00;74.90;;;;;;5022247;28;20495;-74
2020/12/06 03:39:48;;;;;;;28.83;19.57;;;8.00;74.70;;;;;;5022562;28;20846;-73
2020/12/06 03:42:16;;;;;;;23.60;17.30;;;8.00;74.80;;;;;;5035545;28;21025;-74
2020/12/06 03:44:42;;;;;;;25.80;18.97;;;7.90;74.60;;;;;;5030627;28;20506;-73
2020/12/06 03:47:09;;;;;;;24.17;19.10;;;7.90;74.50;;;;;;5015954;28;20502;-74
2020/12/06 03:49:36;;;;;;;23.83;18.50;;;7.90;74.70;;;;;;5019663;28;20536;-74
2020/12/06 03:52:02;;;;;;;28.57;20.73;;;7.90;74.80;;;;;;5033982;28;20446;-74
2020/12/06 03:54:29;;;;;;;24.87;19.43;;;7.80;74.60;;;;;;5025078;28;20506;-74
2020/12/06 03:56:55;;;;;;;26.53;20.07;;;7.90;74.80;;;;;;5024612;28;20460;-74
2020/12/06 03:59:22;;;;;;;23.13;18.17;;;7.80;74.80;;;;;;5013932;28;20451;-74
2020/12/06 04:01:48;;;;;;;22.20;18.03;;;7.90;75.00;;;;;;5034299;28;20901;-74
2020/12/06 04:04:16;;;;;;;25.97;18.13;;;7.90;75.10;;;;;;5018525;28;20457;-74
2020/12/06 04:06:42;;;;;;;26.70;19.07;;;7.90;74.90;;;;;;5028149;28;20519;-74
2020/12/06 04:09:09;;;;;;;25.00;19.87;;;7.80;74.50;;;;;;5021323;28;20455;-73
2020/12/06 04:11:35;;;;;;;31.13;20.00;;;7.90;74.50;;;;;;5029632;28;20465;-73
2020/12/06 04:14:02;;;;;;;25.67;20.80;;;7.90;74.50;;;;;;5022734;28;21689;-73
2020/12/06 04:16:28;;;;;;;28.13;20.70;;;7.80;74.60;;;;;;5015555;28;20450;-73
2020/12/06 04:18:55;;;;;;;27.90;19.40;;;7.80;74.50;;;;;;5026050;28;20459;-74
2020/12/06 04:21:22;;;;;;;30.07;19.97;;;7.80;74.50;;;;;;5024935;28;21011;-74
2020/12/06 04:23:49;;;;;;;32.33;22.13;;;7.80;74.70;;;;;;5018684;28;20451;-73
2020/12/06 04:26:15;;;;;;;27.30;19.90;;;7.80;74.80;;;;;;5031658;28;20959;-73
2020/12/06 04:28:42;;;;;;;33.07;21.17;;;7.80;74.60;;;;;;5028859;28;20443;-73
2020/12/06 04:31:08;;;;;;;35.30;22.43;;;7.80;74.60;;;;;;5019682;28;20465;-73
2020/12/06 04:33:35;;;;;;;34.70;22.17;;;7.70;74.70;;;;;;5033471;28;20443;-73
2020/12/06 04:36:01;;;;;;;35.50;22.93;;;7.80;74.70;;;;;;5033868;28;20455;-73
2020/12/06 04:38:29;;;;;;;36.80;22.57;;;7.70;74.50;;;;;;5034515;28;20987;-73
2020/12/06 04:40:55;;;;;;;31.63;22.13;;;7.70;74.60;;;;;;5033901;28;20952;-73
2020/12/06 04:43:22;;;;;;;33.83;21.47;;;7.70;74.60;;;;;;5022842;28;20512;-74
2020/12/06 04:45:48;;;;;;;29.37;20.20;;;7.70;74.30;;;;;;5031004;28;20458;-74
2020/12/06 04:48:26;;;;;;;37.90;22.90;;;7.70;74.40;;;;;;5024489;28;20467;-74
2020/12/06 04:50:55;;;;;;;34.07;21.47;;;7.70;74.50;;;;;;5015661;28;20448;-74
2020/12/06 04:53:27;;;;;;;37.20;25.23;;;7.70;74.40;;;;;;5034077;28;20455;-73
2020/12/06 04:55:55;;;;;;;36.13;22.43;;;7.60;74.40;;;;;;5019949;28;20530;-73
2020/12/06 04:58:25;;;;;;;34.33;22.60;;;7.60;74.40;;;;;;5015790;28;20451;-72
2020/12/06 05:00:52;;;;;;;36.27;21.67;;;7.60;74.50;;;;;;5027209;28;20493;-74
2020/12/06 05:03:23;;;;;;;37.57;24.30;;;7.60;74.60;;;;;;5030437;28;20501;-74
2020/12/06 05:05:50;;;;;;;35.97;22.10;;;7.60;74.50;;;;;;5032891;28;20575;-73
2020/12/06 05:08:18;;;;;;;35.00;22.70;;;7.60;74.60;;;;;;5029253;28;20476;-73
2020/12/06 05:10:46;;;;;;;36.43;23.37;;;7.60;74.60;;;;;;5031346;28;20833;-73
2020/12/06 05:13:15;;;;;;;34.77;21.23;;;7.60;74.70;;;;;;5032075;28;20877;-74
2020/12/06 05:15:41;;;;;;;34.93;21.97;;;7.60;74.90;;;;;;5032541;28;20500;-75
2020/12/06 05:18:08;;;;;;;35.30;22.83;;;7.60;74.80;;;;;;5032439;28;20458;-74
2020/12/06 05:20:35;;;;;;;32.40;21.93;;;7.60;74.80;;;;;;5021144;28;20459;-75
2020/12/06 05:23:02;;;;;;;38.43;23.07;;;7.60;74.80;;;;;;5015365;28;20560;-74
2020/12/06 05:25:29;;;;;;;35.20;22.50;;;7.60;74.60;;;;;;5016785;28;20450;-74
2020/12/06 05:27:55;;;;;;;36.57;24.90;;;7.60;74.50;;;;;;5033643;28;20454;-73
2020/12/06 05:30:23;;;;;;;38.80;23.53;;;7.60;74.40;;;;;;5028146;28;20458;-74
2020/12/06 05:32:49;;;;;;;32.43;24.10;;;7.60;74.60;;;;;;5019921;28;20445;-74
2020/12/06 05:35:19;;;;;;;32.50;22.03;;;7.60;74.60;;;;;;5033507;28;20457;-74
2020/12/06 05:37:46;;;;;;;36.57;22.70;;;7.60;74.50;;;;;;5027565;28;20551;-73
2020/12/06 05:40:14;;;;;;;40.00;23.63;;;7.60;74.50;;;;;;5013980;28;20487;-74
2020/12/06 05:42:42;;;;;;;33.90;22.67;;;7.60;74.60;;;;;;5025611;28;20501;-73
2020/12/06 05:45:10;;;;;;;35.10;22.40;;;7.60;74.50;;;;;;5012245;28;20524;-74
2020/12/06 05:47:38;;;;;;;34.50;22.07;;;7.60;74.50;;;;;;5014751;28;20464;-74
2020/12/06 05:50:06;;;;;;;29.70;20.47;;;7.60;74.30;;;;;;5013224;28;21056;-73
2020/12/06 05:52:34;;;;;;;28.77;19.90;;;7.70;74.20;;;;;;5014842;28;20451;-74
2020/12/06 05:55:01;;;;;;;30.57;19.07;;;7.60;74.10;;;;;;5013492;28;20502;-74
2020/12/06 05:57:29;;;;;;;28.53;19.80;;;7.70;73.90;;;;;;5014321;28;20494;-74
2020/12/06 05:59:57;;;;;;;30.07;19.47;;;7.60;73.70;;;;;;5033201;28;20456;-74
2020/12/06 06:02:24;;;;;;;29.43;20.80;;;7.60;73.50;;;;;;5025986;28;20496;-74
2020/12/06 06:04:52;;;;;;;29.87;22.17;;;7.60;73.70;;;;;;5033264;28;20462;-73
2020/12/06 06:07:23;;;;;;;33.73;20.30;;;7.60;73.50;;;;;;5022724;28;20460;-73
2020/12/06 06:09:54;;;;;;;28.90;19.57;;;7.60;73.40;;;;;;5031113;28;20451;-74
2020/12/06 06:12:31;;;;;;;28.43;19.30;;;7.60;73.50;;;;;;5020536;28;20474;-74
2020/12/06 06:15:01;;;;;;;32.00;20.13;;;7.60;73.30;;;;;;5013384;28;20446;-74
2020/12/06 06:17:28;;;;;;;31.63;20.63;;;7.60;73.00;;;;;;5024224;28;20483;-74
2020/12/06 06:19:57;;;;;;;34.50;23.10;;;7.60;73.10;;;;;;5017355;28;20459;-73
2020/12/06 06:22:29;;;;;;;33.87;20.53;;;7.60;73.40;;;;;;5023017;28;20862;-74
2020/12/06 06:24:57;;;;;;;31.47;21.93;;;7.60;73.50;;;;;;5026789;28;20533;-74
2020/12/06 06:27:23;;;;;;;35.23;22.33;;;7.50;73.20;;;;;;5026541;28;20451;-74
2020/12/06 06:29:51;;;;;;;30.53;21.87;;;7.50;73.30;;;;;;5026398;28;20969;-74
2020/12/06 06:32:20;;;;;;;29.17;21.00;;;7.50;73.50;;;;;;5027703;28;21020;-74
2020/12/06 06:34:47;;;;;;;32.23;20.77;;;7.50;73.40;;;;;;5027716;28;20482;-74
2020/12/06 06:37:17;;;;;;;35.63;21.50;;;7.60;73.30;;;;;;5021414;28;20537;-74
2020/12/06 06:39:45;;;;;;;31.53;20.40;;;7.60;73.20;;;;;;5024279;28;20815;-75
2020/12/06 06:42:13;;;;;;;35.20;23.03;;;7.60;73.30;;;;;;5026160;28;21023;-74
2020/12/06 06:44:41;;;;;;;32.73;21.77;;;7.70;73.50;;;;;;5020326;28;20813;-74
2020/12/06 06:47:10;;;;;;;34.80;24.37;;;7.70;73.50;;;;;;5021661;28;20466;-74
2020/12/06 06:49:53;;;;;;;35.20;21.03;;;7.70;73.40;;;;;;5014973;28;20459;-74
2020/12/06 06:52:22;;;;;;;35.07;22.33;;;7.70;73.40;;;;;;5018339;28;20461;-74
2020/12/06 06:54:50;;;;;;;31.40;19.20;;;7.60;73.40;;;;;;5012692;28;20447;-74
2020/12/06 06:57:18;;;;;;;31.17;20.93;;;7.70;73.10;;;;;;5013571;28;20452;-75
2020/12/06 06:59:47;;;;;;;33.57;22.33;;;7.70;73.00;;;;;;5032332;28;20462;-74
2020/12/06 07:02:31;;;;;;;36.47;22.73;;;7.70;73.00;;;;;;5031653;28;20493;-74
2020/12/06 07:04:57;;;;;;;33.83;22.40;;;7.70;73.10;;;;;;5015099;28;20461;-74
2020/12/06 07:07:44;;;;;;;33.70;20.33;;;7.70;73.30;;;;;;5017529;28;20452;-74
2020/12/06 07:10:12;;;;;;;29.33;21.77;;;7.70;73.40;;;;;;5026359;28;20453;-73
2020/12/06 07:12:41;;;;;;;38.33;22.10;;;7.60;73.50;;;;;;5034774;28;20468;-74
2020/12/06 07:15:09;;;;;;;34.70;21.00;;;7.70;73.60;;;;;;5035661;28;20450;-73
2020/12/06 07:17:36;;;;;;;32.77;21.87;;;7.70;73.40;;;;;;5029619;28;20491;-73
2020/12/06 07:20:04;;;;;;;37.67;22.77;;;7.70;73.30;;;;;;5031532;28;20469;-74
2020/12/06 07:22:31;;;;;;;30.20;18.60;;;7.70;73.30;;;;;;5023113;28;20494;-73
2020/12/06 07:24:59;;;;;;;29.17;18.00;;;7.70;73.20;;;;;;5016381;28;20458;-73
2020/12/06 07:27:26;;;;;;;29.53;18.33;;;7.60;73.90;;;;;;5023929;28;20451;-73
2020/12/06 07:29:52;;;;;;;29.67;18.73;;;7.60;73.70;;;;;;5030547;28;20457;-73
2020/12/06 07:32:20;;;;;;;31.37;19.90;;;7.60;74.00;;;;;;5022371;28;20463;-73
2020/12/06 07:34:46;;;;;;;31.53;20.07;;;7.50;74.00;;;;;;5026421;28;21028;-73
2020/12/06 07:37:14;;;;;;;35.90;20.27;;;7.60;74.10;;;;;;5032865;28;20462;-74
2020/12/06 07:39:44;;;;;;;27.87;18.87;;;7.60;74.00;;;;;;5023061;28;20959;-73
2020/12/06 07:42:17;;;;;;;35.67;19.33;;;7.60;74.10;;;;;;5025517;28;20524;-73
2020/12/06 07:44:45;;;;;;;33.47;19.03;;;7.60;74.20;;;;;;5030398;28;20454;-74
2020/12/06 07:47:12;;;;;;;31.50;18.13;;;7.60;74.20;;;;;;5016840;28;20488;-74
2020/12/06 07:49:46;;;;;;;30.10;20.17;;;7.60;74.20;;;;;;5025552;28;20449;-73
2020/12/06 07:52:14;;;;;;;32.20;18.73;;;7.60;74.10;;;;;;5016759;28;20465;-74
2020/12/06 07:54:41;;;;;;;29.43;19.50;;;7.70;74.30;;;;;;5023969;28;20468;-74
2020/12/06 07:57:10;;;;;;;34.33;19.90;;;7.70;74.10;;;;;;5026919;28;20475;-73
2020/12/06 07:59:38;;;;;;;30.23;18.17;;;7.70;74.20;;;;;;5027993;28;20912;-74
2020/12/06 08:02:05;;;;;;;38.60;20.60;;;7.60;74.40;;;;;;5021513;28;20543;-74
2020/12/06 08:04:36;;;;;;;30.80;16.93;;;7.60;74.60;;;;;;5030155;28;20458;-74
2020/12/06 08:07:11;;;;;;;28.07;17.10;;;7.60;74.70;;;;;;5023926;28;20991;-74
2020/12/06 08:09:41;;;;;;;30.37;18.47;;;7.60;74.80;;;;;;5029567;28;20999;-74
2020/12/06 08:12:11;;;;;;;31.40;19.30;;;7.70;74.80;;;;;;5026088;28;20452;-74
2020/12/06 08:14:38;;;;;;;25.47;17.70;;;7.70;74.80;;;;;;5025397;28;20453;-75
2020/12/06 08:17:05;;;;;;;25.63;17.37;;;7.70;75.00;;;;;;5024607;28;20458;-75
2020/12/06 08:19:32;;;;;;;29.80;18.10;;;7.70;75.10;;;;;;5021043;28;20459;-74
2020/12/06 08:22:00;;;;;;;26.10;16.70;;;7.70;75.20;;;;;;5020840;28;20983;-75
2020/12/06 08:24:28;;;;;;;31.63;16.77;;;7.70;75.40;;;;;;5019998;28;20452;-75
2020/12/06 08:26:55;;;;;;;29.43;16.77;;;7.70;75.50;;;;;;5028671;28;20454;-75
2020/12/06 08:29:38;;;;;;;27.70;17.60;;;7.70;75.80;;;;;;5027470;28;20460;-74
2020/12/06 08:32:06;;;;;;;21.90;14.30;;;7.70;76.00;;;;;;5029874;28;20481;-74
2020/12/06 08:34:32;;;;;;;26.80;15.93;;;7.70;75.80;;;;;;5024166;28;20477;-74
2020/12/06 08:37:17;;;;;;;23.17;15.73;;;7.80;75.40;;;;;;5025478;28;20478;-74
2020/12/06 08:39:45;;;;;;;25.93;17.03;;;7.80;75.70;;;;;;5024121;28;20449;-74
2020/12/06 08:42:16;;;;;;;26.70;16.10;;;7.80;75.70;;;;;;5033383;28;20487;-74
2020/12/06 08:44:56;;;;;;;24.93;14.70;;;7.80;76.00;;;;;;5018180;28;20440;-75
2020/12/06 08:47:23;;;;;;;26.40;14.97;;;7.80;75.90;;;;;;5023738;28;20459;-74
2020/12/06 08:50:03;;;;;;;23.60;16.03;;;7.90;76.10;;;;;;5021789;28;20456;-74
2020/12/06 08:52:29;;;;;;;23.83;16.10;;;7.90;75.90;;;;;;5032386;28;20830;-74
2020/12/06 08:54:58;;;;;;;24.60;14.20;;;7.90;75.90;;;;;;5030753;28;20452;-75
2020/12/06 08:57:27;;;;;;;19.97;14.03;;;8.00;76.00;;;;;;5019308;28;20469;-75
2020/12/06 08:59:54;;;;;;;23.63;14.37;;;8.00;75.80;;;;;;5026999;28;20532;-75
2020/12/06 09:02:23;;;;;;;21.43;13.13;;;8.10;75.60;;;;;;5020871;28;21042;-75
2020/12/06 09:04:49;;;;;;;23.73;14.53;;;8.10;75.60;;;;;;5025543;28;20480;-73
2020/12/06 09:07:16;;;;;;;18.07;11.70;;;8.20;75.90;;;;;;5034404;28;20459;-74
2020/12/06 09:09:43;;;;;;;18.47;11.63;;;8.20;75.70;;;;;;5020936;28;20502;-74
2020/12/06 09:12:10;;;;;;;18.80;11.10;;;8.30;75.20;;;;;;5018135;28;20885;-74
2020/12/06 09:14:37;;;;;;;21.00;12.37;;;8.30;74.90;;;;;;5023808;28;20473;-74
2020/12/06 09:17:04;;;;;;;17.37;11.67;;;8.30;74.80;;;;;;5024982;28;20483;-75
2020/12/06 09:19:31;;;;;;;18.40;11.67;;;8.30;75.00;;;;;;5013845;28;20459;-74
2020/12/06 09:21:58;;;;;;;16.80;10.60;;;8.20;74.80;;;;;;5014067;28;20535;-73
2020/12/06 09:24:24;;;;;;;17.30;11.57;;;8.30;74.80;;;;;;5015945;28;20455;-74
2020/12/06 09:26:51;;;;;;;20.23;12.30;;;8.30;74.50;;;;;;5026835;28;20450;-74
2020/12/06 09:29:17;;;;;;;16.80;10.80;;;8.30;74.30;;;;;;5033402;28;20459;-74
2020/12/06 09:31:44;;;;;;;15.93;10.57;;;8.30;74.10;;;;;;5033645;28;20984;-75
2020/12/06 09:34:11;;;;;;;16.00;11.23;;;8.30;74.40;;;;;;5020728;28;20469;-74
2020/12/06 09:36:44;;;;;;;15.60;11.20;;;8.30;74.10;;;;;;5014672;28;20458;-74
2020/12/06 09:39:11;;;;;;;14.57;8.83;;;8.30;74.00;;;;;;5019019;28;20447;-75
2020/12/06 09:41:38;;;;;;;16.07;12.27;;;8.30;73.80;;;;;;5019952;28;20464;-75
2020/12/06 09:44:07;;;;;;;10.90;8.03;;;8.20;73.60;;;;;;5016109;28;20578;-74
2020/12/06 09:46:34;;;;;;;13.43;8.80;;;8.20;73.80;;;;;;5018491;28;20537;-75
2020/12/06 09:49:01;;;;;;;12.30;8.80;;;8.20;74.10;;;;;;5016522;28;20926;-74
2020/12/06 09:51:28;;;;;;;14.97;10.87;;;8.10;74.20;;;;;;5014042;28;20456;-75
2020/12/06 09:53:55;;;;;;;15.37;9.43;;;8.20;74.40;;;;;;5033246;28;20468;-74
2020/12/06 09:56:26;;;;;;;11.93;8.53;;;8.20;74.10;;;;;;5030537;28;20457;-74
2020/12/06 09:58:53;;;;;;;13.87;8.93;;;8.30;73.90;;;;;;5016275;28;20503;-74
2020/12/06 10:01:20;;;;;;;11.67;9.13;;;8.30;73.60;;;;;;5014736;28;20982;-75
2020/12/06 10:03:46;;;;;;;13.33;9.03;;;8.30;73.70;;;;;;5013202;28;20563;-75
2020/12/06 10:06:13;;;;;;;12.43;9.17;;;8.30;73.80;;;;;;5013501;28;20452;-75
2020/12/06 10:08:41;;;;;;;12.17;7.87;;;8.30;73.90;;;;;;5021525;28;20799;-75
2020/12/06 10:11:07;;;;;;;10.77;8.97;;;8.30;74.00;;;;;;5013915;28;20492;-75
2020/12/06 10:13:34;;;;;;;10.73;8.30;;;8.30;74.00;;;;;;5017445;28;20448;-75
2020/12/06 10:16:01;;;;;;;7.80;7.00;;;8.30;74.20;;;;;;5024125;28;20456;-74
2020/12/06 10:18:28;;;;;;;17.23;8.40;;;8.30;74.00;;;;;;5030541;28;20492;-74
2020/12/06 10:20:54;;;;;;;12.57;9.37;;;8.40;74.00;;;;;;5030769;28;20531;-74
2020/12/06 10:23:21;;;;;;;11.43;8.47;;;8.40;73.70;;;;;;5026166;28;20493;-74
2020/12/06 10:25:48;;;;;;;12.50;8.87;;;8.50;74.40;;;;;;5017662;28;20533;-73
2020/12/06 10:28:15;;;;;;;13.00;8.37;;;8.50;73.50;;;;;;5022725;28;20456;-74
2020/12/06 10:30:41;;;;;;;9.87;8.63;;;8.50;73.40;;;;;;5032486;28;20455;-74
2020/12/06 10:33:08;;;;;;;10.67;8.83;;;8.40;73.20;;;;;;5030305;28;20459;-74
2020/12/06 10:35:34;;;;;;;11.50;9.10;;;8.40;73.50;;;;;;5032014;28;20462;-74
2020/12/06 10:38:01;;;;;;;12.57;9.20;;;8.30;73.70;;;;;;5030186;28;20480;-74
2020/12/06 10:40:29;;;;;;;10.27;8.57;;;8.30;74.00;;;;;;5019513;28;20452;-75
2020/12/06 10:42:57;;;;;;;10.20;7.93;;;8.30;74.00;;;;;;5013166;28;20500;-75
2020/12/06 10:45:24;;;;;;;8.43;6.73;;;8.40;74.10;;;;;;5017157;28;20460;-75
2020/12/06 10:47:50;;;;;;;9.50;7.97;;;8.30;74.20;;;;;;5021019;28;20983;-75
2020/12/06 10:50:17;;;;;;;11.07;7.93;;;8.30;74.40;;;;;;5013071;28;20845;-77
2020/12/06 10:52:43;;;;;;;8.97;7.73;;;8.30;74.30;;;;;;5027078;28;20462;-75
2020/12/06 10:55:10;;;;;;;11.23;7.17;;;8.30;74.50;;;;;;5032031;28;20462;-75
2020/12/06 10:57:37;;;;;;;9.50;8.30;;;8.30;74.80;;;;;;5032241;28;20455;-75
2020/12/06 11:00:06;;;;;;;10.37;8.33;;;8.30;74.90;;;;;;5026666;28;20796;-75
2020/12/06 11:02:32;;;;;;;7.73;6.83;;;8.40;75.00;;;;;;5021781;28;20479;-75
2020/12/06 11:04:59;;;;;;;8.20;7.40;;;8.50;75.10;;;;;;5031221;28;20862;-75
2020/12/06 11:07:26;;;;;;;9.73;7.17;;;8.50;74.90;;;;;;5030654;28;20455;-76
2020/12/06 11:09:52;;;;;;;7.80;6.57;;;8.50;74.90;;;;;;5030645;28;21010;-75
2020/12/06 11:12:19;;;;;;;8.60;7.30;;;8.50;75.00;;;;;;5032236;28;20462;-75
2020/12/06 11:14:45;;;;;;;8.03;7.03;;;8.50;75.00;;;;;;5025824;28;20444;-76
2020/12/06 11:17:12;;;;;;;10.50;8.17;;;8.50;74.90;;;;;;5013597;28;20455;-76
2020/12/06 11:19:39;;;;;;;8.70;7.07;;;8.50;74.80;;;;;;5012870;28;20444;-75
2020/12/06 11:22:05;;;;;;;10.20;7.13;;;8.50;74.80;;;;;;5012072;28;20459;-76
2020/12/06 11:24:34;;;;;;;10.13;7.43;;;8.50;75.00;;;;;;5028788;28;20448;-75
2020/12/06 11:27:00;;;;;;;8.20;6.70;;;8.50;75.20;;;;;;5032038;28;20450;-75
2020/12/06 11:29:28;;;;;;;7.97;7.17;;;8.60;75.40;;;;;;5015679;28;20502;-75
2020/12/06 11:31:55;;;;;;;7.23;6.53;;;8.60;75.30;;;;;;5012232;28;20447;-75
2020/12/06 11:34:22;;;;;;;11.83;9.90;;;8.70;75.20;;;;;;5023484;28;20460;-75
2020/12/06 11:36:50;;;;;;;7.10;6.20;;;8.70;75.10;;;;;;5016661;28;20475;-76
2020/12/06 11:39:16;;;;;;;8.27;7.23;;;8.70;75.00;;;;;;5012575;28;20550;-76
2020/12/06 11:41:43;;;;;;;7.10;6.40;;;8.70;75.10;;;;;;5012179;28;21010;-76
2020/12/06 11:44:09;;;;;;;10.90;7.73;;;8.70;75.00;;;;;;5028768;28;20503;-77
2020/12/06 11:46:36;;;;;;;8.20;6.90;;;8.70;74.90;;;;;;5032278;28;20522;-77
2020/12/06 11:49:03;;;;;;;10.40;6.23;;;8.70;75.10;;;;;;5019173;28;20473;-75
2020/12/06 11:51:30;;;;;;;7.97;6.53;;;8.70;75.00;;;;;;5026964;28;20456;-75
2020/12/06 11:53:57;;;;;;;7.50;6.80;;;8.70;74.80;;;;;;5028311;28;20466;-76
2020/12/06 11:56:23;;;;;;;6.40;5.63;;;8.70;74.70;;;;;;5020191;28;20464;-75
2020/12/06 11:58:50;;;;;;;7.50;6.10;;;8.80;74.80;;;;;;5027699;28;20482;-75
2020/12/06 12:01:17;;;;;;;7.93;6.77;;;8.70;75.00;;;;;;5033939;28;20483;-75
2020/12/06 12:03:43;;;;;;;6.17;5.33;;;8.80;75.20;;;;;;5028014;28;20500;-76
2020/12/06 12:06:10;;;;;;;6.60;6.00;;;8.80;75.20;;;;;;5020845;28;20448;-73
2020/12/06 12:08:37;;;;;;;6.00;5.50;;;8.90;75.30;;;;;;5020327;28;20459;-76
2020/12/06 12:11:09;;;;;;;5.60;5.07;;;8.90;75.10;;;;;;5024263;28;20907;-73
2020/12/06 12:13:36;;;;;;;7.07;5.13;;;9.00;75.00;;;;;;5019868;28;20455;-73
2020/12/06 12:16:03;;;;;;;6.30;5.70;;;9.00;74.60;;;;;;5015635;28;20451;-73
2020/12/06 12:18:30;;;;;;;7.57;4.93;;;9.10;74.60;;;;;;5032906;28;20471;-73
2020/12/06 12:20:56;;;;;;;6.13;5.03;;;9.10;74.10;;;;;;5033445;28;20451;-73
2020/12/06 12:23:24;;;;;;;5.23;4.80;;;9.10;73.90;;;;;;5031478;28;20494;-74
2020/12/06 12:25:52;;;;;;;4.70;4.30;;;9.10;74.00;;;;;;5033037;28;20542;-74
2020/12/06 12:28:18;;;;;;;5.77;5.27;;;9.10;73.90;;;;;;5016387;28;20471;-74
2020/12/06 12:30:45;;;;;;;6.50;5.80;;;9.10;73.80;;;;;;5015560;28;20548;-74
2020/12/06 12:33:11;;;;;;;5.23;4.70;;;9.20;74.20;;;;;;5019346;28;20466;-74
2020/12/06 12:35:38;;;;;;;4.97;4.60;;;9.20;73.90;;;;;;5025095;28;20454;-74
2020/12/06 12:38:04;;;;;;;5.07;4.73;;;9.30;74.00;;;;;;5034392;28;20476;-74
2020/12/06 12:40:31;;;;;;;5.47;4.90;;;9.30;74.00;;;;;;5028243;28;20976;-74
2020/12/06 12:42:58;;;;;;;5.37;4.97;;;9.30;73.80;;;;;;5023267;28;20488;-73